sensor_id;sensor_type;location;lat;lon;timestamp;pressure;altitude;pressure_sealevel;temperature;humidity
32761;BME280;19126;47.472;7.850;2023-04-28T00:00:23;96457.59;;;9.64;100.00
32761;BME280;19126;47.472;7.850;2023-04-28T00:02:50;96457.25;;;9.67;100.00
32761;BME280;19126;47.472;7.850;2023-04-28T00:05:18;96453.19;;;9.64;100.00
32761;BME280;19126;47.472;7.850;2023-04-28T00:07:49;96454.47;;;9.68;100.00
32761;BME280;19126;47.472;7.850;2023-04-28T00:10:16;96448.41;;;9.68;100.00
32761;BME280;19126;47.472;7.850;2023-04-28T00:12:43;96451.53;;;9.72;100.00
32761;BME280;19126;47.472;7.850;2023-04-28T00:15:11;96447.06;;;9.72;100.00
32761;BME280;19126;47.472;7.850;2023-04-28T00:17:38;96443.47;;;9.73;100.00
32761;BME280;19126;47.472;7.850;2023-04-28T00:20:07;96442.13;;;9.77;100.00
32761;BME280;19126;47.472;7.850;2023-04-28T00:22:35;96445.56;;;9.78;100.00
32761;BME280;19126;47.472;7.850;2023-04-28T00:25:04;96449.19;;;9.77;100.00
32761;BME280;19126;47.472;7.850;2023-04-28T00:27:32;96443.25;;;9.83;100.00
32761;BME280;19126;47.472;7.850;2023-04-28T00:30:00;96445.03;;;9.82;100.00
32761;BME280;19126;47.472;7.850;2023-04-28T00:32:27;96442.25;;;9.84;99.48
32761;BME280;19126;47.472;7.850;2023-04-28T00:34:56;96445.53;;;9.86;99.56
32761;BME280;19126;47.472;7.850;2023-04-28T00:37:23;96453.34;;;9.94;98.72
32761;BME280;19126;47.472;7.850;2023-04-28T00:39:54;96439.41;;;9.94;98.21
32761;BME280;19126;47.472;7.850;2023-04-28T00:42:23;96445.13;;;9.97;98.00
32761;BME280;19126;47.472;7.850;2023-04-28T00:44:50;96435.63;;;9.96;97.96
32761;BME280;19126;47.472;7.850;2023-04-28T00:47:17;96438.41;;;9.95;98.56
32761;BME280;19126;47.472;7.850;2023-04-28T00:49:45;96432.00;;;9.97;98.07
32761;BME280;19126;47.472;7.850;2023-04-28T00:52:14;96435.44;;;9.98;96.53
32761;BME280;19126;47.472;7.850;2023-04-28T00:54:42;96443.94;;;10.00;94.30
32761;BME280;19126;47.472;7.850;2023-04-28T00:57:09;96434.28;;;10.01;95.24
32761;BME280;19126;47.472;7.850;2023-04-28T00:59:38;96431.81;;;9.99;94.81
32761;BME280;19126;47.472;7.850;2023-04-28T01:02:05;96431.00;;;9.99;94.51
32761;BME280;19126;47.472;7.850;2023-04-28T01:04:34;96427.56;;;9.98;92.90
32761;BME280;19126;47.472;7.850;2023-04-28T01:07:07;96429.31;;;10.06;92.16
32761;BME280;19126;47.472;7.850;2023-04-28T01:09:34;96427.97;;;10.10;87.21
32761;BME280;19126;47.472;7.850;2023-04-28T01:12:02;96431.94;;;10.06;85.44
32761;BME280;19126;47.472;7.850;2023-04-28T01:14:29;96438.00;;;10.06;83.92
32761;BME280;19126;47.472;7.850;2023-04-28T01:16:59;96431.31;;;10.04;82.30
32761;BME280;19126;47.472;7.850;2023-04-28T01:32:26;96431.69;;;10.16;68.34
32761;BME280;19126;47.472;7.850;2023-04-28T01:43:41;96418.22;;;10.19;62.11
32761;BME280;19126;47.472;7.850;2023-04-28T04:17:21;96439.59;;;10.54;31.31
32761;BME280;19126;47.472;7.850;2023-04-28T04:19:48;96430.69;;;10.63;31.16
32761;BME280;19126;47.472;7.850;2023-04-28T04:22:16;96436.28;;;10.60;31.01
32761;BME280;19126;47.472;7.850;2023-04-28T04:24:43;96439.88;;;10.59;30.88
32761;BME280;19126;47.472;7.850;2023-04-28T04:27:11;96438.09;;;10.60;30.67
32761;BME280;19126;47.472;7.850;2023-04-28T04:29:38;96440.88;;;10.58;30.35
32761;BME280;19126;47.472;7.850;2023-04-28T04:32:07;96454.13;;;10.65;29.52
32761;BME280;19126;47.472;7.850;2023-04-28T04:34:35;96443.97;;;10.62;29.71
32761;BME280;19126;47.472;7.850;2023-04-28T04:37:03;96447.53;;;10.69;29.85
32761;BME280;19126;47.472;7.850;2023-04-28T04:39:30;96450.34;;;10.67;29.24
32761;BME280;19126;47.472;7.850;2023-04-28T04:41:58;96450.34;;;10.67;28.42
32761;BME280;19126;47.472;7.850;2023-04-28T04:44:25;96454.59;;;10.68;28.08
32761;BME280;19126;47.472;7.850;2023-04-28T04:46:52;96451.78;;;10.70;28.20
32761;BME280;19126;47.472;7.850;2023-04-28T04:49:19;96455.25;;;10.70;26.95
32761;BME280;19126;47.472;7.850;2023-04-28T04:51:48;96459.50;;;10.72;26.93
32761;BME280;19126;47.472;7.850;2023-04-28T04:54:15;96460.94;;;10.74;26.80
32761;BME280;19126;47.472;7.850;2023-04-28T04:56:43;96451.06;;;10.76;25.91
32761;BME280;19126;47.472;7.850;2023-04-28T04:59:10;96458.16;;;10.76;25.12
32761;BME280;19126;47.472;7.850;2023-04-28T05:01:38;96456.31;;;10.76;25.02
32761;BME280;19126;47.472;7.850;2023-04-28T05:04:05;96454.69;;;10.75;25.33
32761;BME280;19126;47.472;7.850;2023-04-28T05:06:33;96454.16;;;10.80;25.19
32761;BME280;19126;47.472;7.850;2023-04-28T05:09:01;96457.59;;;10.80;24.60
32761;BME280;19126;47.472;7.850;2023-04-28T05:11:29;96451.81;;;10.85;24.71
32761;BME280;19126;47.472;7.850;2023-04-28T05:13:57;96456.88;;;10.87;23.97
32761;BME280;19126;47.472;7.850;2023-04-28T05:16:25;96457.50;;;10.89;24.39
32761;BME280;19126;47.472;7.850;2023-04-28T05:18:52;96457.34;;;10.90;24.69
32761;BME280;19126;47.472;7.850;2023-04-28T05:21:20;96453.88;;;10.90;24.70
32761;BME280;19126;47.472;7.850;2023-04-28T05:23:47;96443.84;;;10.93;23.69
32761;BME280;19126;47.472;7.850;2023-04-28T05:26:16;96448.00;;;11.03;23.77
32761;BME280;19126;47.472;7.850;2023-04-28T05:28:43;96446.91;;;10.97;27.03
32761;BME280;19126;47.472;7.850;2023-04-28T05:31:11;96449.81;;;10.87;28.92
32761;BME280;19126;47.472;7.850;2023-04-28T05:33:38;96449.06;;;10.78;30.05
32761;BME280;19126;47.472;7.850;2023-04-28T05:36:06;96449.97;;;10.70;30.87
32761;BME280;19126;47.472;7.850;2023-04-28T05:38:34;96452.78;;;10.69;30.92
32761;BME280;19126;47.472;7.850;2023-04-28T05:41:02;96449.34;;;10.68;30.30
32761;BME280;19126;47.472;7.850;2023-04-28T05:43:30;96457.88;;;10.70;29.78
32761;BME280;19126;47.472;7.850;2023-04-28T05:45:58;96457.69;;;10.72;30.01
32761;BME280;19126;47.472;7.850;2023-04-28T05:48:25;96455.03;;;10.72;31.26
32761;BME280;19126;47.472;7.850;2023-04-28T05:50:52;96458.31;;;10.74;32.04
32761;BME280;19126;47.472;7.850;2023-04-28T05:53:20;96458.88;;;10.84;31.97
32761;BME280;19126;47.472;7.850;2023-04-28T05:55:47;96464.47;;;10.81;31.98
32761;BME280;19126;47.472;7.850;2023-04-28T05:58:14;96465.47;;;10.80;31.79
32761;BME280;19126;47.472;7.850;2023-04-28T06:00:43;96455.44;;;10.84;31.58
32761;BME280;19126;47.472;7.850;2023-04-28T06:03:10;96458.78;;;10.78;31.90
32761;BME280;19126;47.472;7.850;2023-04-28T06:05:39;96447.44;;;10.77;30.97
32761;BME280;19126;47.472;7.850;2023-04-28T06:08:09;96458.06;;;10.84;29.75
32761;BME280;19126;47.472;7.850;2023-04-28T06:10:37;96452.09;;;10.90;30.70
32761;BME280;19126;47.472;7.850;2023-04-28T06:13:04;96454.59;;;10.83;30.78
32761;BME280;19126;47.472;7.850;2023-04-28T06:15:32;96457.06;;;10.85;30.38
32761;BME280;19126;47.472;7.850;2023-04-28T06:18:01;96456.50;;;10.90;31.10
32761;BME280;19126;47.472;7.850;2023-04-28T06:20:30;96463.59;;;10.89;31.07
32761;BME280;19126;47.472;7.850;2023-04-28T06:22:58;96454.78;;;10.97;30.47
32761;BME280;19126;47.472;7.850;2023-04-28T06:25:25;96455.53;;;11.06;31.56
32761;BME280;19126;47.472;7.850;2023-04-28T06:27:53;96458.25;;;11.12;31.17
32761;BME280;19126;47.472;7.850;2023-04-28T06:30:22;96451.34;;;11.26;32.19
32761;BME280;19126;47.472;7.850;2023-04-28T06:32:49;96455.78;;;11.41;32.64
32761;BME280;19126;47.472;7.850;2023-04-28T06:35:18;96451.69;;;11.53;33.92
32761;BME280;19126;47.472;7.850;2023-04-28T06:37:46;96446.13;;;11.63;34.96
32761;BME280;19126;47.472;7.850;2023-04-28T06:40:13;96443.75;;;11.68;35.84
32761;BME280;19126;47.472;7.850;2023-04-28T06:42:43;96437.56;;;11.76;37.12
32761;BME280;19126;47.472;7.850;2023-04-28T06:45:11;96450.34;;;11.79;37.85
32761;BME280;19126;47.472;7.850;2023-04-28T06:47:38;96443.13;;;11.66;41.42
32761;BME280;19126;47.472;7.850;2023-04-28T06:50:07;96451.56;;;11.62;47.62
32761;BME280;19126;47.472;7.850;2023-04-28T06:52:36;96451.56;;;11.62;49.70
32761;BME280;19126;47.472;7.850;2023-04-28T06:55:06;96455.38;;;11.59;50.62
32761;BME280;19126;47.472;7.850;2023-04-28T06:57:34;96451.00;;;11.66;52.88
32761;BME280;19126;47.472;7.850;2023-04-28T07:00:03;96449.31;;;11.58;54.86
32761;BME280;19126;47.472;7.850;2023-04-28T07:02:31;96450.94;;;11.60;54.65
32761;BME280;19126;47.472;7.850;2023-04-28T07:04:58;96448.31;;;11.60;54.32
32761;BME280;19126;47.472;7.850;2023-04-28T07:07:25;96439.22;;;11.62;52.95
32761;BME280;19126;47.472;7.850;2023-04-28T07:09:54;96437.69;;;11.68;51.66
32761;BME280;19126;47.472;7.850;2023-04-28T07:12:22;96438.94;;;11.72;50.53
32761;BME280;19126;47.472;7.850;2023-04-28T07:14:50;96446.47;;;11.75;48.65
32761;BME280;19126;47.472;7.850;2023-04-28T07:17:17;96462.06;;;11.77;48.02
32761;BME280;19126;47.472;7.850;2023-04-28T07:19:44;96467.94;;;11.79;47.31
32761;BME280;19126;47.472;7.850;2023-04-28T07:22:12;96471.41;;;11.79;46.41
32761;BME280;19126;47.472;7.850;2023-04-28T07:24:39;96474.41;;;11.76;46.88
32761;BME280;19126;47.472;7.850;2023-04-28T07:27:07;96480.69;;;11.75;46.97
32761;BME280;19126;47.472;7.850;2023-04-28T07:29:35;96478.22;;;11.73;46.56
32761;BME280;19126;47.472;7.850;2023-04-28T07:32:02;96485.47;;;11.71;45.85
32761;BME280;19126;47.472;7.850;2023-04-28T07:34:31;96495.19;;;11.71;45.04
32761;BME280;19126;47.472;7.850;2023-04-28T07:36:58;96482.84;;;11.71;43.65
32761;BME280;19126;47.472;7.850;2023-04-28T07:39:25;96488.56;;;11.75;43.36
32761;BME280;19126;47.472;7.850;2023-04-28T07:41:53;96494.63;;;11.76;42.11
32761;BME280;19126;47.472;7.850;2023-04-28T07:44:24;96490.00;;;11.78;43.21
32761;BME280;19126;47.472;7.850;2023-04-28T07:46:52;96488.19;;;11.78;42.73
32761;BME280;19126;47.472;7.850;2023-04-28T07:49:20;96495.09;;;11.79;42.38
32761;BME280;19126;47.472;7.850;2023-04-28T07:51:47;96495.88;;;11.95;41.12
32761;BME280;19126;47.472;7.850;2023-04-28T07:54:17;96496.88;;;11.94;39.68
32761;BME280;19126;47.472;7.850;2023-04-28T07:56:44;96498.63;;;12.01;37.38
32761;BME280;19126;47.472;7.850;2023-04-28T07:59:11;96493.53;;;12.00;36.71
32761;BME280;19126;47.472;7.850;2023-04-28T08:01:40;96496.50;;;11.97;35.22
32761;BME280;19126;47.472;7.850;2023-04-28T08:04:07;96498.63;;;12.01;33.75
32761;BME280;19126;47.472;7.850;2023-04-28T08:06:36;96502.31;;;12.07;32.03
32761;BME280;19126;47.472;7.850;2023-04-28T08:09:05;96499.56;;;12.15;31.46
32761;BME280;19126;47.472;7.850;2023-04-28T08:11:33;96506.53;;;12.01;33.83
32761;BME280;19126;47.472;7.850;2023-04-28T08:14:05;96508.41;;;11.93;33.69
32761;BME280;19126;47.472;7.850;2023-04-28T08:16:33;96507.22;;;11.95;34.04
32761;BME280;19126;47.472;7.850;2023-04-28T08:19:04;96508.50;;;11.99;33.64
32761;BME280;19126;47.472;7.850;2023-04-28T08:21:32;96508.66;;;11.98;33.14
32761;BME280;19126;47.472;7.850;2023-04-28T08:23:59;96513.75;;;11.99;32.06
32761;BME280;19126;47.472;7.850;2023-04-28T08:26:27;96499.97;;;11.97;31.22
32761;BME280;19126;47.472;7.850;2023-04-28T08:28:54;96501.78;;;11.97;29.98
32761;BME280;19126;47.472;7.850;2023-04-28T08:31:21;96504.69;;;12.02;28.32
32761;BME280;19126;47.472;7.850;2023-04-28T08:33:49;96516.31;;;12.08;26.56
32761;BME280;19126;47.472;7.850;2023-04-28T08:36:18;96504.19;;;12.13;25.50
32761;BME280;19126;47.472;7.850;2023-04-28T08:38:46;96517.44;;;12.20;24.40
32761;BME280;19126;47.472;7.850;2023-04-28T08:41:15;96509.97;;;12.24;24.68
32761;BME280;19126;47.472;7.850;2023-04-28T08:43:43;96510.47;;;12.34;24.55
32761;BME280;19126;47.472;7.850;2023-04-28T08:46:10;96509.84;;;12.54;24.81
32761;BME280;19126;47.472;7.850;2023-04-28T08:48:42;96517.56;;;12.77;24.99
32761;BME280;19126;47.472;7.850;2023-04-28T08:51:15;96518.22;;;12.86;27.18
32761;BME280;19126;47.472;7.850;2023-04-28T08:53:49;96518.22;;;12.86;30.14
32761;BME280;19126;47.472;7.850;2023-04-28T08:56:20;96519.66;;;12.88;34.29
32761;BME280;19126;47.472;7.850;2023-04-28T08:58:51;96519.28;;;12.92;36.94
32761;BME280;19126;47.472;7.850;2023-04-28T09:01:19;96520.91;;;12.93;37.84
32761;BME280;19126;47.472;7.850;2023-04-28T09:03:48;96525.56;;;12.90;37.67
32761;BME280;19126;47.472;7.850;2023-04-28T09:06:15;96530.25;;;12.95;37.50
32761;BME280;19126;47.472;7.850;2023-04-28T09:08:44;96533.03;;;12.87;38.14
32761;BME280;19126;47.472;7.850;2023-04-28T09:11:12;96534.03;;;12.86;38.25
32761;BME280;19126;47.472;7.850;2023-04-28T09:13:42;96542.28;;;12.76;40.03
32761;BME280;19126;47.472;7.850;2023-04-28T09:16:09;96548.97;;;12.79;39.28
32761;BME280;19126;47.472;7.850;2023-04-28T09:18:37;96543.19;;;12.90;37.94
32761;BME280;19126;47.472;7.850;2023-04-28T09:21:10;96547.28;;;12.93;37.72
32761;BME280;19126;47.472;7.850;2023-04-28T09:23:48;96547.31;;;12.99;37.27
32761;BME280;19126;47.472;7.850;2023-04-28T09:26:15;96537.25;;;13.10;36.67
32761;BME280;19126;47.472;7.850;2023-04-28T09:28:43;96537.84;;;13.05;39.13
32761;BME280;19126;47.472;7.850;2023-04-28T09:31:22;96536.78;;;12.99;39.80
32761;BME280;19126;47.472;7.850;2023-04-28T09:33:56;96533.47;;;13.19;38.60
32761;BME280;19126;47.472;7.850;2023-04-28T09:36:27;96544.13;;;13.32;39.43
32761;BME280;19126;47.472;7.850;2023-04-28T09:38:58;96535.72;;;13.51;38.83
32761;BME280;19126;47.472;7.850;2023-04-28T09:41:35;96534.31;;;13.55;41.21
32761;BME280;19126;47.472;7.850;2023-04-28T09:44:12;96534.75;;;13.58;41.18
32761;BME280;19126;47.472;7.850;2023-04-28T09:46:40;96530.72;;;13.62;40.43
32761;BME280;19126;47.472;7.850;2023-04-28T09:49:11;96534.59;;;13.67;39.49
32761;BME280;19126;47.472;7.850;2023-04-28T09:51:39;96534.81;;;13.72;39.51
32761;BME280;19126;47.472;7.850;2023-04-28T09:54:08;96526.97;;;13.85;38.78
32761;BME280;19126;47.472;7.850;2023-04-28T09:56:36;96523.94;;;13.95;38.97
32761;BME280;19126;47.472;7.850;2023-04-28T09:59:05;96525.16;;;13.99;38.82
32761;BME280;19126;47.472;7.850;2023-04-28T10:01:37;96530.31;;;14.14;35.74
32761;BME280;19126;47.472;7.850;2023-04-28T10:04:07;96529.50;;;14.20;38.07
32761;BME280;19126;47.472;7.850;2023-04-28T10:06:36;96530.75;;;14.38;38.59
32761;BME280;19126;47.472;7.850;2023-04-28T10:09:04;96526.50;;;14.44;41.34
32761;BME280;19126;47.472;7.850;2023-04-28T10:11:34;96521.84;;;14.53;41.44
32761;BME280;19126;47.472;7.850;2023-04-28T10:14:02;96525.50;;;14.51;50.00
32761;BME280;19126;47.472;7.850;2023-04-28T10:16:30;96526.53;;;14.64;60.16
32761;BME280;19126;47.472;7.850;2023-04-28T10:18:58;96529.59;;;14.68;72.85
32761;BME280;19126;47.472;7.850;2023-04-28T10:21:28;96530.84;;;14.78;79.88
32761;BME280;19126;47.472;7.850;2023-04-28T10:24:05;96521.06;;;15.06;77.14
32761;BME280;19126;47.472;7.850;2023-04-28T10:27:07;96522.88;;;15.26;85.31
32761;BME280;19126;47.472;7.850;2023-04-28T10:29:35;96516.91;;;15.50;85.14
32761;BME280;19126;47.472;7.850;2023-04-28T10:32:23;96514.41;;;15.69;89.39
32761;BME280;19126;47.472;7.850;2023-04-28T10:35:41;96514.97;;;15.85;90.75
32761;BME280;19126;47.472;7.850;2023-04-28T10:38:11;96523.09;;;15.96;91.83
32761;BME280;19126;47.472;7.850;2023-04-28T10:43:37;96522.69;;;15.86;95.24
32761;BME280;19126;47.472;7.850;2023-04-28T10:46:07;96513.53;;;15.89;97.17
32761;BME280;19126;47.472;7.850;2023-04-28T10:48:59;96514.97;;;15.85;97.10
32761;BME280;19126;47.472;7.850;2023-04-28T10:51:31;96522.06;;;15.84;97.10
32761;BME280;19126;47.472;7.850;2023-04-28T12:40:53;96477.22;;;18.04;100.00
32761;BME280;19126;47.472;7.850;2023-04-28T12:43:21;96478.09;;;18.28;100.00
32761;BME280;19126;47.472;7.850;2023-04-28T12:45:49;96472.81;;;18.40;100.00
32761;BME280;19126;47.472;7.850;2023-04-28T12:48:18;96475.06;;;18.67;100.00
32761;BME280;19126;47.472;7.850;2023-04-28T12:50:45;96470.78;;;18.90;100.00
32761;BME280;19126;47.472;7.850;2023-04-28T12:53:12;96461.06;;;19.31;100.00
32761;BME280;19126;47.472;7.850;2023-04-28T12:55:40;96459.75;;;19.58;100.00
32761;BME280;19126;47.472;7.850;2023-04-28T12:58:09;96453.09;;;19.72;100.00
32761;BME280;19126;47.472;7.850;2023-04-28T13:00:37;96450.53;;;19.77;100.00
32761;BME280;19126;47.472;7.850;2023-04-28T13:03:06;96445.31;;;19.95;100.00
32761;BME280;19126;47.472;7.850;2023-04-28T13:05:35;96449.09;;;20.28;100.00
32761;BME280;19126;47.472;7.850;2023-04-28T13:08:03;96448.34;;;20.15;98.30
32761;BME280;19126;47.472;7.850;2023-04-28T13:10:30;96455.69;;;20.08;99.28
32761;BME280;19126;47.472;7.850;2023-04-28T13:12:57;96447.50;;;19.98;100.00
32761;BME280;19126;47.472;7.850;2023-04-28T13:15:26;96443.34;;;19.90;100.00
32761;BME280;19126;47.472;7.850;2023-04-28T13:17:54;96445.31;;;19.83;100.00
32761;BME280;19126;47.472;7.850;2023-04-28T13:20:24;96438.59;;;19.80;97.73
32761;BME280;19126;47.472;7.850;2023-04-28T13:23:13;96430.09;;;19.83;100.00
32761;BME280;19126;47.472;7.850;2023-04-28T13:25:40;96423.41;;;19.81;100.00
32761;BME280;19126;47.472;7.850;2023-04-28T13:28:11;96425.25;;;19.80;100.00
32761;BME280;19126;47.472;7.850;2023-04-28T13:30:40;96420.75;;;19.93;100.00
32761;BME280;19126;47.472;7.850;2023-04-28T13:33:08;96421.50;;;20.05;100.00
32761;BME280;19126;47.472;7.850;2023-04-28T13:35:38;96414.16;;;20.12;100.00
32761;BME280;19126;47.472;7.850;2023-04-28T13:38:06;96423.69;;;20.08;99.73
32761;BME280;19126;47.472;7.850;2023-04-28T13:40:37;96416.91;;;20.17;100.00
32761;BME280;19126;47.472;7.850;2023-04-28T13:43:04;96414.97;;;20.30;100.00
32761;BME280;19126;47.472;7.850;2023-04-28T13:45:31;96415.84;;;20.35;100.00
32761;BME280;19126;47.472;7.850;2023-04-28T13:48:00;96407.72;;;20.42;99.78
32761;BME280;19126;47.472;7.850;2023-04-28T13:50:28;96404.97;;;20.37;100.00
32761;BME280;19126;47.472;7.850;2023-04-28T13:52:55;96412.38;;;20.35;100.00
32761;BME280;19126;47.472;7.850;2023-04-28T13:55:23;96411.34;;;20.36;100.00
32761;BME280;19126;47.472;7.850;2023-04-28T13:57:53;96403.00;;;20.32;100.00
32761;BME280;19126;47.472;7.850;2023-04-28T14:00:20;96401.88;;;20.28;100.00
32761;BME280;19126;47.472;7.850;2023-04-28T14:02:50;96403.41;;;20.24;100.00
32761;BME280;19126;47.472;7.850;2023-04-28T14:05:18;96395.31;;;20.19;100.00
32761;BME280;19126;47.472;7.850;2023-04-28T14:07:46;96401.69;;;20.18;100.00
32761;BME280;19126;47.472;7.850;2023-04-28T14:10:13;96395.31;;;20.19;100.00
32761;BME280;19126;47.472;7.850;2023-04-28T14:12:40;96383.84;;;20.18;100.00
32761;BME280;19126;47.472;7.850;2023-04-28T14:15:08;96385.69;;;20.18;100.00
32761;BME280;19126;47.472;7.850;2023-04-28T14:17:36;96380.28;;;20.13;100.00
32761;BME280;19126;47.472;7.850;2023-04-28T14:20:05;96381.81;;;20.09;100.00
32761;BME280;19126;47.472;7.850;2023-04-28T14:22:34;96379.41;;;20.07;100.00
32761;BME280;19126;47.472;7.850;2023-04-28T14:25:02;96368.47;;;20.09;100.00
32761;BME280;19126;47.472;7.850;2023-04-28T14:27:29;96377.88;;;20.11;100.00
32761;BME280;19126;47.472;7.850;2023-04-28T14:29:58;96367.19;;;20.11;100.00
32761;BME280;19126;47.472;7.850;2023-04-28T14:32:28;96368.47;;;20.09;100.00
32761;BME280;19126;47.472;7.850;2023-04-28T14:34:55;96364.03;;;19.97;100.00
32761;BME280;19126;47.472;7.850;2023-04-28T14:37:23;96367.06;;;19.89;100.00
32761;BME280;19126;47.472;7.850;2023-04-28T14:39:52;96359.94;;;19.77;100.00
32761;BME280;19126;47.472;7.850;2023-04-28T14:42:19;96360.88;;;19.71;100.00
32761;BME280;19126;47.472;7.850;2023-04-28T14:44:47;96360.69;;;19.61;100.00
32761;BME280;19126;47.472;7.850;2023-04-28T14:47:15;96361.00;;;19.47;100.00
32761;BME280;19126;47.472;7.850;2023-04-28T14:49:42;96357.88;;;19.39;100.00
32761;BME280;19126;47.472;7.850;2023-04-28T14:52:09;96358.50;;;19.29;100.00
32761;BME280;19126;47.472;7.850;2023-04-28T14:54:37;96347.06;;;19.16;100.00
32761;BME280;19126;47.472;7.850;2023-04-28T14:57:06;96343.50;;;19.11;100.00
32761;BME280;19126;47.472;7.850;2023-04-28T14:59:34;96347.91;;;19.05;100.00
32761;BME280;19126;47.472;7.850;2023-04-28T15:02:01;96347.00;;;18.99;100.00
32761;BME280;19126;47.472;7.850;2023-04-28T15:04:30;96337.03;;;18.95;100.00
32761;BME280;19126;47.472;7.850;2023-04-28T15:06:57;96341.78;;;18.93;100.00
32761;BME280;19126;47.472;7.850;2023-04-28T15:09:26;96341.66;;;18.87;100.00
32761;BME280;19126;47.472;7.850;2023-04-28T15:11:53;96339.69;;;18.83;100.00
32761;BME280;19126;47.472;7.850;2023-04-28T15:14:22;96323.03;;;18.75;100.00
32761;BME280;19126;47.472;7.850;2023-04-28T15:16:49;96320.28;;;18.70;100.00
32761;BME280;19126;47.472;7.850;2023-04-28T15:19:17;96321.56;;;18.68;100.00
32761;BME280;19126;47.472;7.850;2023-04-28T15:21:45;96324.13;;;18.63;100.00
32761;BME280;19126;47.472;7.850;2023-04-28T15:24:13;96307.34;;;18.50;100.00
32761;BME280;19126;47.472;7.850;2023-04-28T15:26:41;96310.59;;;18.40;100.00
32761;BME280;19126;47.472;7.850;2023-04-28T15:29:08;96313.81;;;18.30;100.00
32761;BME280;19126;47.472;7.850;2023-04-28T15:31:37;96313.00;;;18.18;100.00
32761;BME280;19126;47.472;7.850;2023-04-28T15:34:06;96305.94;;;18.12;100.00
32761;BME280;19126;47.472;7.850;2023-04-28T15:36:36;96309.41;;;18.00;100.00
32761;BME280;19126;47.472;7.850;2023-04-28T15:39:04;96309.13;;;17.90;100.00
32761;BME280;19126;47.472;7.850;2023-04-28T15:41:32;96317.44;;;17.82;100.00
32761;BME280;19126;47.472;7.850;2023-04-28T15:44:00;96316.00;;;17.67;100.00
32761;BME280;19126;47.472;7.850;2023-04-28T15:46:49;96322.91;;;17.56;100.00
32761;BME280;19126;47.472;7.850;2023-04-28T15:49:17;96318.00;;;17.41;100.00
32761;BME280;19126;47.472;7.850;2023-04-28T15:51:46;96317.97;;;17.30;100.00
32761;BME280;19126;47.472;7.850;2023-04-28T15:54:13;96322.50;;;17.10;100.00
32761;BME280;19126;47.472;7.850;2023-04-28T15:56:40;96325.06;;;16.98;100.00
32761;BME280;19126;47.472;7.850;2023-04-28T15:59:08;96325.88;;;16.80;100.00
32761;BME280;19126;47.472;7.850;2023-04-28T16:01:39;96329.91;;;16.64;100.00
32761;BME280;19126;47.472;7.850;2023-04-28T16:04:08;96358.56;;;16.55;100.00
32761;BME280;19126;47.472;7.850;2023-04-28T16:06:36;96381.88;;;16.47;99.73
32761;BME280;19126;47.472;7.850;2023-04-28T16:09:03;96402.41;;;16.33;98.14
32761;BME280;19126;47.472;7.850;2023-04-28T16:11:30;96382.25;;;16.25;96.32
32761;BME280;19126;47.472;7.850;2023-04-28T16:13:58;96373.56;;;16.18;94.41
32761;BME280;19126;47.472;7.850;2023-04-28T16:16:27;96374.25;;;16.06;92.42
32761;BME280;19126;47.472;7.850;2023-04-28T16:18:55;96372.09;;;15.96;89.58
32761;BME280;19126;47.472;7.850;2023-04-28T16:21:24;96392.28;;;15.91;88.39
32761;BME280;19126;47.472;7.850;2023-04-28T16:23:51;96395.13;;;15.89;86.83
32761;BME280;19126;47.472;7.850;2023-04-28T16:26:19;96377.22;;;15.85;84.90
32761;BME280;19126;47.472;7.850;2023-04-28T16:28:47;96365.22;;;15.82;83.19
32761;BME280;19126;47.472;7.850;2023-04-28T16:31:14;96361.59;;;15.76;80.14
32761;BME280;19126;47.472;7.850;2023-04-28T16:33:41;96394.81;;;15.72;78.90
32761;BME280;19126;47.472;7.850;2023-04-28T16:36:08;96416.81;;;15.73;76.96
32761;BME280;19126;47.472;7.850;2023-04-28T16:38:37;96359.19;;;15.68;75.35
32761;BME280;19126;47.472;7.850;2023-04-28T16:41:05;96377.38;;;15.58;73.77
32761;BME280;19126;47.472;7.850;2023-04-28T16:43:32;96366.38;;;15.61;72.39
32761;BME280;19126;47.472;7.850;2023-04-28T16:46:02;96358.00;;;15.64;71.06
32761;BME280;19126;47.472;7.850;2023-04-28T16:48:29;96365.72;;;15.65;71.17
32761;BME280;19126;47.472;7.850;2023-04-28T16:50:57;96362.28;;;15.65;70.83
32761;BME280;19126;47.472;7.850;2023-04-28T16:53:24;96359.63;;;15.65;70.74
32761;BME280;19126;47.472;7.850;2023-04-28T16:55:53;96357.56;;;15.67;70.38
32761;BME280;19126;47.472;7.850;2023-04-28T16:58:20;96359.78;;;15.70;70.30
32761;BME280;19126;47.472;7.850;2023-04-28T17:00:47;96369.13;;;15.73;69.70
32761;BME280;19126;47.472;7.850;2023-04-28T17:03:14;96369.97;;;15.73;69.61
32761;BME280;19126;47.472;7.850;2023-04-28T17:05:42;96371.19;;;15.71;69.37
32761;BME280;19126;47.472;7.850;2023-04-28T17:08:09;96381.34;;;15.74;68.09
32761;BME280;19126;47.472;7.850;2023-04-28T17:10:36;96379.31;;;15.76;67.67
32761;BME280;19126;47.472;7.850;2023-04-28T17:13:05;96380.16;;;15.70;66.65
32761;BME280;19126;47.472;7.850;2023-04-28T17:15:32;96382.88;;;15.56;64.47
32761;BME280;19126;47.472;7.850;2023-04-28T17:17:59;96387.38;;;15.49;62.00
32761;BME280;19126;47.472;7.850;2023-04-28T17:20:27;96376.97;;;15.54;59.92
32761;BME280;19126;47.472;7.850;2023-04-28T17:22:54;96382.31;;;15.47;59.02
32761;BME280;19126;47.472;7.850;2023-04-28T17:25:22;96395.75;;;15.46;57.45
32761;BME280;19126;47.472;7.850;2023-04-28T17:27:50;96391.28;;;15.46;56.81
32761;BME280;19126;47.472;7.850;2023-04-28T17:30:19;96395.56;;;15.47;55.50
32761;BME280;19126;47.472;7.850;2023-04-28T17:32:46;96383.00;;;15.36;53.46
32761;BME280;19126;47.472;7.850;2023-04-28T17:35:13;96359.00;;;15.24;51.76
32761;BME280;19126;47.472;7.850;2023-04-28T17:37:40;96370.84;;;15.21;49.83
32761;BME280;19126;47.472;7.850;2023-04-28T17:40:09;96395.88;;;15.19;48.76
32761;BME280;19126;47.472;7.850;2023-04-28T17:42:37;96392.41;;;15.18;47.97
32761;BME280;19126;47.472;7.850;2023-04-28T17:45:06;96376.31;;;15.20;47.07
32761;BME280;19126;47.472;7.850;2023-04-28T17:47:35;96371.44;;;15.17;45.73